sensor_id;sensor_type;location;lat;lon;timestamp;temperature;humidity
25668;DHT22;18003;-33.830;151.202;2023-06-22T00:02:20;9.80;99.90
25668;DHT22;18003;-33.830;151.202;2023-06-22T00:04:51;9.80;99.90
25668;DHT22;18003;-33.830;151.202;2023-06-22T00:07:21;9.80;99.90
25668;DHT22;18003;-33.830;151.202;2023-06-22T00:09:52;9.80;99.90
25668;DHT22;18003;-33.830;151.202;2023-06-22T00:12:22;9.80;99.90
25668;DHT22;18003;-33.830;151.202;2023-06-22T00:14:52;9.80;99.90
25668;DHT22;18003;-33.830;151.202;2023-06-22T00:17:22;9.80;99.90
25668;DHT22;18003;-33.830;151.202;2023-06-22T00:19:52;9.80;99.90
25668;DHT22;18003;-33.830;151.202;2023-06-22T00:22:23;9.80;99.90
25668;DHT22;18003;-33.830;151.202;2023-06-22T00:24:55;9.90;99.90
25668;DHT22;18003;-33.830;151.202;2023-06-22T00:27:24;9.90;99.90
25668;DHT22;18003;-33.830;151.202;2023-06-22T00:29:55;10.00;99.90
25668;DHT22;18003;-33.830;151.202;2023-06-22T00:32:24;10.00;99.90
25668;DHT22;18003;-33.830;151.202;2023-06-22T00:34:54;10.00;99.90
25668;DHT22;18003;-33.830;151.202;2023-06-22T00:37:24;10.10;99.90
25668;DHT22;18003;-33.830;151.202;2023-06-22T00:39:56;10.10;99.90
25668;DHT22;18003;-33.830;151.202;2023-06-22T00:42:26;10.20;99.90
25668;DHT22;18003;-33.830;151.202;2023-06-22T00:44:56;10.20;99.90
25668;DHT22;18003;-33.830;151.202;2023-06-22T00:47:26;10.20;99.90
25668;DHT22;18003;-33.830;151.202;2023-06-22T00:49:57;10.20;99.90
25668;DHT22;18003;-33.830;151.202;2023-06-22T00:52:27;10.30;99.90
25668;DHT22;18003;-33.830;151.202;2023-06-22T00:54:57;10.30;99.90
25668;DHT22;18003;-33.830;151.202;2023-06-22T00:57:27;10.40;99.90
25668;DHT22;18003;-33.830;151.202;2023-06-22T00:59:57;10.40;99.90
25668;DHT22;18003;-33.830;151.202;2023-06-22T01:02:28;10.40;99.90
25668;DHT22;18003;-33.830;151.202;2023-06-22T01:04:57;10.40;99.90
25668;DHT22;18003;-33.830;151.202;2023-06-22T01:08:12;10.40;99.90
25668;DHT22;18003;-33.830;151.202;2023-06-22T01:12:48;10.40;99.90
25668;DHT22;18003;-33.830;151.202;2023-06-22T01:15:15;10.50;99.90
25668;DHT22;18003;-33.830;151.202;2023-06-22T01:17:46;10.50;99.90
25668;DHT22;18003;-33.830;151.202;2023-06-22T01:20:18;10.60;99.90
25668;DHT22;18003;-33.830;151.202;2023-06-22T01:23:07;10.60;99.90
25668;DHT22;18003;-33.830;151.202;2023-06-22T01:26:02;10.60;99.90
25668;DHT22;18003;-33.830;151.202;2023-06-22T01:28:24;10.70;99.90
25668;DHT22;18003;-33.830;151.202;2023-06-22T01:30:52;10.70;99.90
25668;DHT22;18003;-33.830;151.202;2023-06-22T01:33:24;10.80;99.90
25668;DHT22;18003;-33.830;151.202;2023-06-22T01:35:54;10.90;99.90
25668;DHT22;18003;-33.830;151.202;2023-06-22T01:38:25;11.20;99.90
25668;DHT22;18003;-33.830;151.202;2023-06-22T01:40:56;11.50;99.90
25668;DHT22;18003;-33.830;151.202;2023-06-22T01:43:25;11.70;99.90
25668;DHT22;18003;-33.830;151.202;2023-06-22T01:45:58;11.90;99.90
25668;DHT22;18003;-33.830;151.202;2023-06-22T01:48:28;11.90;99.90
25668;DHT22;18003;-33.830;151.202;2023-06-22T01:50:59;12.00;99.90
25668;DHT22;18003;-33.830;151.202;2023-06-22T01:53:29;12.00;99.90
25668;DHT22;18003;-33.830;151.202;2023-06-22T01:55:59;12.10;99.90
25668;DHT22;18003;-33.830;151.202;2023-06-22T01:58:30;12.10;99.90
25668;DHT22;18003;-33.830;151.202;2023-06-22T02:01:11;12.10;99.90
25668;DHT22;18003;-33.830;151.202;2023-06-22T02:03:52;12.20;99.90
25668;DHT22;18003;-33.830;151.202;2023-06-22T02:06:21;12.10;99.90
25668;DHT22;18003;-33.830;151.202;2023-06-22T02:08:56;12.20;99.90
25668;DHT22;18003;-33.830;151.202;2023-06-22T02:11:27;12.20;99.90
25668;DHT22;18003;-33.830;151.202;2023-06-22T02:13:58;12.20;99.90
25668;DHT22;18003;-33.830;151.202;2023-06-22T02:16:30;12.20;99.90
25668;DHT22;18003;-33.830;151.202;2023-06-22T02:19:02;12.30;99.90
25668;DHT22;18003;-33.830;151.202;2023-06-22T02:21:32;12.30;99.90
25668;DHT22;18003;-33.830;151.202;2023-06-22T02:24:03;12.30;99.90
25668;DHT22;18003;-33.830;151.202;2023-06-22T02:26:33;12.30;99.90
25668;DHT22;18003;-33.830;151.202;2023-06-22T02:29:03;12.40;99.90
25668;DHT22;18003;-33.830;151.202;2023-06-22T02:31:33;12.40;99.90
25668;DHT22;18003;-33.830;151.202;2023-06-22T02:34:03;12.40;99.90
25668;DHT22;18003;-33.830;151.202;2023-06-22T02:36:33;12.40;99.90
25668;DHT22;18003;-33.830;151.202;2023-06-22T02:39:04;12.40;99.90
25668;DHT22;18003;-33.830;151.202;2023-06-22T02:41:34;12.40;99.90
25668;DHT22;18003;-33.830;151.202;2023-06-22T02:44:04;12.40;99.90
25668;DHT22;18003;-33.830;151.202;2023-06-22T02:46:34;12.30;99.90
25668;DHT22;18003;-33.830;151.202;2023-06-22T02:49:05;12.20;99.90
25668;DHT22;18003;-33.830;151.202;2023-06-22T02:51:37;12.10;99.90
25668;DHT22;18003;-33.830;151.202;2023-06-22T02:54:08;11.90;99.90
25668;DHT22;18003;-33.830;151.202;2023-06-22T02:56:38;11.90;99.90
25668;DHT22;18003;-33.830;151.202;2023-06-22T02:59:09;11.80;99.90
25668;DHT22;18003;-33.830;151.202;2023-06-22T03:01:39;11.80;99.90
25668;DHT22;18003;-33.830;151.202;2023-06-22T03:04:09;11.80;99.90
25668;DHT22;18003;-33.830;151.202;2023-06-22T03:06:39;11.80;99.90
25668;DHT22;18003;-33.830;151.202;2023-06-22T03:11:40;11.70;99.90
25668;DHT22;18003;-33.830;151.202;2023-06-22T03:14:10;11.50;99.90
25668;DHT22;18003;-33.830;151.202;2023-06-22T03:16:40;11.40;99.90
25668;DHT22;18003;-33.830;151.202;2023-06-22T03:19:11;11.40;99.90
25668;DHT22;18003;-33.830;151.202;2023-06-22T03:21:41;11.40;99.90
25668;DHT22;18003;-33.830;151.202;2023-06-22T03:24:11;11.30;99.90
25668;DHT22;18003;-33.830;151.202;2023-06-22T03:26:41;11.30;99.90
25668;DHT22;18003;-33.830;151.202;2023-06-22T03:29:12;11.30;99.90
25668;DHT22;18003;-33.830;151.202;2023-06-22T03:31:42;11.20;99.90
25668;DHT22;18003;-33.830;151.202;2023-06-22T03:34:12;11.30;99.90
25668;DHT22;18003;-33.830;151.202;2023-06-22T03:36:42;11.20;99.90
25668;DHT22;18003;-33.830;151.202;2023-06-22T03:39:13;11.20;99.90
25668;DHT22;18003;-33.830;151.202;2023-06-22T03:41:43;11.20;99.90
25668;DHT22;18003;-33.830;151.202;2023-06-22T03:44:13;11.30;99.90
25668;DHT22;18003;-33.830;151.202;2023-06-22T03:46:44;11.30;99.90
25668;DHT22;18003;-33.830;151.202;2023-06-22T03:49:14;11.30;99.90
25668;DHT22;18003;-33.830;151.202;2023-06-22T03:51:44;11.40;99.90
25668;DHT22;18003;-33.830;151.202;2023-06-22T03:54:14;11.40;99.90
25668;DHT22;18003;-33.830;151.202;2023-06-22T03:56:44;11.40;99.90
25668;DHT22;18003;-33.830;151.202;2023-06-22T03:59:17;11.50;99.90
25668;DHT22;18003;-33.830;151.202;2023-06-22T04:01:47;11.40;99.90
25668;DHT22;18003;-33.830;151.202;2023-06-22T04:04:17;11.40;99.90
25668;DHT22;18003;-33.830;151.202;2023-06-22T04:06:47;11.40;99.90
25668;DHT22;18003;-33.830;151.202;2023-06-22T04:09:18;11.40;99.90
25668;DHT22;18003;-33.830;151.202;2023-06-22T04:11:48;11.40;99.90
25668;DHT22;18003;-33.830;151.202;2023-06-22T04:14:18;11.40;99.90
25668;DHT22;18003;-33.830;151.202;2023-06-22T04:16:48;11.40;99.90
25668;DHT22;18003;-33.830;151.202;2023-06-22T04:19:23;11.40;99.90
25668;DHT22;18003;-33.830;151.202;2023-06-22T04:21:50;11.40;99.90
25668;DHT22;18003;-33.830;151.202;2023-06-22T04:24:22;11.40;99.90
25668;DHT22;18003;-33.830;151.202;2023-06-22T04:26:52;11.70;99.90
25668;DHT22;18003;-33.830;151.202;2023-06-22T04:29:23;11.90;99.90
25668;DHT22;18003;-33.830;151.202;2023-06-22T04:31:58;12.10;99.90
25668;DHT22;18003;-33.830;151.202;2023-06-22T04:34:30;12.10;99.90
25668;DHT22;18003;-33.830;151.202;2023-06-22T04:37:00;12.20;99.90
25668;DHT22;18003;-33.830;151.202;2023-06-22T04:39:30;12.30;99.90
25668;DHT22;18003;-33.830;151.202;2023-06-22T04:42:00;12.30;99.90
25668;DHT22;18003;-33.830;151.202;2023-06-22T04:44:30;12.30;99.90
25668;DHT22;18003;-33.830;151.202;2023-06-22T04:47:01;12.40;99.90
25668;DHT22;18003;-33.830;151.202;2023-06-22T04:49:32;12.30;99.90
25668;DHT22;18003;-33.830;151.202;2023-06-22T04:52:04;12.30;99.90
25668;DHT22;18003;-33.830;151.202;2023-06-22T04:54:33;12.40;99.90
25668;DHT22;18003;-33.830;151.202;2023-06-22T04:57:07;12.40;99.90
25668;DHT22;18003;-33.830;151.202;2023-06-22T04:59:41;12.40;99.90
25668;DHT22;18003;-33.830;151.202;2023-06-22T05:02:11;12.50;99.90
25668;DHT22;18003;-33.830;151.202;2023-06-22T05:04:41;12.50;99.90
25668;DHT22;18003;-33.830;151.202;2023-06-22T05:07:11;12.50;99.90
25668;DHT22;18003;-33.830;151.202;2023-06-22T05:09:42;12.50;99.90
25668;DHT22;18003;-33.830;151.202;2023-06-22T05:12:12;12.50;99.90
25668;DHT22;18003;-33.830;151.202;2023-06-22T05:14:43;12.50;99.90
25668;DHT22;18003;-33.830;151.202;2023-06-22T05:17:16;12.50;99.90
25668;DHT22;18003;-33.830;151.202;2023-06-22T05:19:47;12.50;99.90
25668;DHT22;18003;-33.830;151.202;2023-06-22T05:22:17;12.50;99.90
25668;DHT22;18003;-33.830;151.202;2023-06-22T05:24:47;12.50;99.90
25668;DHT22;18003;-33.830;151.202;2023-06-22T05:27:17;12.50;99.90
25668;DHT22;18003;-33.830;151.202;2023-06-22T05:29:47;12.50;99.90
25668;DHT22;18003;-33.830;151.202;2023-06-22T05:32:17;12.50;99.90
25668;DHT22;18003;-33.830;151.202;2023-06-22T05:34:47;12.50;99.90
25668;DHT22;18003;-33.830;151.202;2023-06-22T05:37:17;12.50;99.90
25668;DHT22;18003;-33.830;151.202;2023-06-22T05:39:48;12.50;99.90
25668;DHT22;18003;-33.830;151.202;2023-06-22T05:42:18;12.30;99.90
25668;DHT22;18003;-33.830;151.202;2023-06-22T05:44:48;12.20;99.90
25668;DHT22;18003;-33.830;151.202;2023-06-22T05:47:19;12.10;99.90
25668;DHT22;18003;-33.830;151.202;2023-06-22T05:49:49;12.00;99.90
25668;DHT22;18003;-33.830;151.202;2023-06-22T05:52:19;12.00;99.90
25668;DHT22;18003;-33.830;151.202;2023-06-22T05:54:49;12.00;99.90
25668;DHT22;18003;-33.830;151.202;2023-06-22T05:57:19;11.90;99.90
25668;DHT22;18003;-33.830;151.202;2023-06-22T05:59:50;11.80;99.90
25668;DHT22;18003;-33.830;151.202;2023-06-22T06:02:21;11.70;99.90
25668;DHT22;18003;-33.830;151.202;2023-06-22T06:04:51;11.70;99.90
25668;DHT22;18003;-33.830;151.202;2023-06-22T06:07:22;11.60;99.90
25668;DHT22;18003;-33.830;151.202;2023-06-22T06:09:52;11.50;99.90
25668;DHT22;18003;-33.830;151.202;2023-06-22T06:12:22;11.50;99.90
25668;DHT22;18003;-33.830;151.202;2023-06-22T06:14:52;11.50;99.90
25668;DHT22;18003;-33.830;151.202;2023-06-22T06:17:23;11.50;99.90
25668;DHT22;18003;-33.830;151.202;2023-06-22T06:19:53;11.40;99.90
25668;DHT22;18003;-33.830;151.202;2023-06-22T06:22:23;11.50;99.90
25668;DHT22;18003;-33.830;151.202;2023-06-22T06:24:53;11.40;99.90
25668;DHT22;18003;-33.830;151.202;2023-06-22T06:27:23;11.40;99.90
25668;DHT22;18003;-33.830;151.202;2023-06-22T06:29:54;11.40;99.90
25668;DHT22;18003;-33.830;151.202;2023-06-22T06:32:24;11.40;99.90
25668;DHT22;18003;-33.830;151.202;2023-06-22T06:34:54;11.50;99.90
25668;DHT22;18003;-33.830;151.202;2023-06-22T06:37:26;11.50;99.90
25668;DHT22;18003;-33.830;151.202;2023-06-22T06:39:56;11.60;99.90
25668;DHT22;18003;-33.830;151.202;2023-06-22T06:42:26;11.60;99.90
25668;DHT22;18003;-33.830;151.202;2023-06-22T06:44:56;11.70;99.90
25668;DHT22;18003;-33.830;151.202;2023-06-22T06:47:27;11.70;99.90
25668;DHT22;18003;-33.830;151.202;2023-06-22T06:49:57;11.70;99.90
25668;DHT22;18003;-33.830;151.202;2023-06-22T06:52:28;11.60;99.90
25668;DHT22;18003;-33.830;151.202;2023-06-22T06:54:58;11.50;99.90
25668;DHT22;18003;-33.830;151.202;2023-06-22T06:57:28;11.50;99.90
25668;DHT22;18003;-33.830;151.202;2023-06-22T06:59:59;11.50;99.90
25668;DHT22;18003;-33.830;151.202;2023-06-22T07:02:30;11.50;99.90
25668;DHT22;18003;-33.830;151.202;2023-06-22T07:05:01;11.80;99.90
25668;DHT22;18003;-33.830;151.202;2023-06-22T07:07:31;11.90;99.90
25668;DHT22;18003;-33.830;151.202;2023-06-22T07:10:01;12.00;99.90
25668;DHT22;18003;-33.830;151.202;2023-06-22T07:12:31;12.00;99.90
25668;DHT22;18003;-33.830;151.202;2023-06-22T07:15:08;12.20;99.90
25668;DHT22;18003;-33.830;151.202;2023-06-22T07:17:38;12.20;99.90
25668;DHT22;18003;-33.830;151.202;2023-06-22T07:20:10;12.20;99.90
25668;DHT22;18003;-33.830;151.202;2023-06-22T07:22:44;12.30;99.90
25668;DHT22;18003;-33.830;151.202;2023-06-22T07:25:14;12.30;99.90
25668;DHT22;18003;-33.830;151.202;2023-06-22T07:28:04;12.30;99.90
25668;DHT22;18003;-33.830;151.202;2023-06-22T07:30:35;12.20;99.90
25668;DHT22;18003;-33.830;151.202;2023-06-22T07:33:09;12.20;99.90
25668;DHT22;18003;-33.830;151.202;2023-06-22T07:35:39;12.20;99.90
25668;DHT22;18003;-33.830;151.202;2023-06-22T07:38:18;12.20;99.90
25668;DHT22;18003;-33.830;151.202;2023-06-22T07:40:46;12.20;99.90
25668;DHT22;18003;-33.830;151.202;2023-06-22T07:43:16;12.20;99.90
25668;DHT22;18003;-33.830;151.202;2023-06-22T07:45:50;12.20;99.90
25668;DHT22;18003;-33.830;151.202;2023-06-22T07:48:24;12.20;99.90
25668;DHT22;18003;-33.830;151.202;2023-06-22T07:51:01;12.20;99.90
25668;DHT22;18003;-33.830;151.202;2023-06-22T07:53:29;12.20;99.90
25668;DHT22;18003;-33.830;151.202;2023-06-22T07:55:59;12.20;99.90
25668;DHT22;18003;-33.830;151.202;2023-06-22T07:58:29;12.20;99.90
25668;DHT22;18003;-33.830;151.202;2023-06-22T08:00:59;12.20;99.90
25668;DHT22;18003;-33.830;151.202;2023-06-22T08:03:29;12.20;99.90
25668;DHT22;18003;-33.830;151.202;2023-06-22T08:06:00;12.20;99.90
25668;DHT22;18003;-33.830;151.202;2023-06-22T08:08:33;12.20;99.90
25668;DHT22;18003;-33.830;151.202;2023-06-22T08:11:02;12.20;99.90
25668;DHT22;18003;-33.830;151.202;2023-06-22T08:13:32;12.20;99.90
25668;DHT22;18003;-33.830;151.202;2023-06-22T08:16:03;12.20;99.90
25668;DHT22;18003;-33.830;151.202;2023-06-22T08:18:33;12.20;99.90
25668;DHT22;18003;-33.830;151.202;2023-06-22T08:21:05;12.20;99.90
25668;DHT22;18003;-33.830;151.202;2023-06-22T08:23:35;12.20;99.90
25668;DHT22;18003;-33.830;151.202;2023-06-22T08:26:05;12.20;99.90
25668;DHT22;18003;-33.830;151.202;2023-06-22T08:28:35;12.20;99.90
25668;DHT22;18003;-33.830;151.202;2023-06-22T08:31:05;12.20;99.90
25668;DHT22;18003;-33.830;151.202;2023-06-22T08:33:35;12.30;99.90
25668;DHT22;18003;-33.830;151.202;2023-06-22T08:36:06;12.30;99.90
25668;DHT22;18003;-33.830;151.202;2023-06-22T08:38:36;12.30;99.90
25668;DHT22;18003;-33.830;151.202;2023-06-22T08:41:06;12.30;99.90
25668;DHT22;18003;-33.830;151.202;2023-06-22T08:43:36;12.30;99.90
25668;DHT22;18003;-33.830;151.202;2023-06-22T08:46:06;12.30;99.90
25668;DHT22;18003;-33.830;151.202;2023-06-22T08:48:36;12.30;99.90
25668;DHT22;18003;-33.830;151.202;2023-06-22T08:51:09;12.30;99.90
25668;DHT22;18003;-33.830;151.202;2023-06-22T08:53:40;12.30;99.90
25668;DHT22;18003;-33.830;151.202;2023-06-22T08:56:11;12.30;99.90
25668;DHT22;18003;-33.830;151.202;2023-06-22T08:58:41;12.30;99.90
25668;DHT22;18003;-33.830;151.202;2023-06-22T09:01:11;12.30;99.90
25668;DHT22;18003;-33.830;151.202;2023-06-22T09:03:42;12.30;99.90
25668;DHT22;18003;-33.830;151.202;2023-06-22T09:06:12;12.20;99.90
25668;DHT22;18003;-33.830;151.202;2023-06-22T09:08:43;12.10;99.90
25668;DHT22;18003;-33.830;151.202;2023-06-22T09:11:13;12.10;99.90
25668;DHT22;18003;-33.830;151.202;2023-06-22T09:13:43;12.10;99.90
25668;DHT22;18003;-33.830;151.202;2023-06-22T09:16:14;12.00;99.90
25668;DHT22;18003;-33.830;151.202;2023-06-22T09:18:46;11.90;99.90
25668;DHT22;18003;-33.830;151.202;2023-06-22T09:21:15;11.80;99.90
25668;DHT22;18003;-33.830;151.202;2023-06-22T09:23:45;11.70;99.90
25668;DHT22;18003;-33.830;151.202;2023-06-22T09:26:17;11.70;99.90
25668;DHT22;18003;-33.830;151.202;2023-06-22T09:28:47;11.60;99.90
25668;DHT22;18003;-33.830;151.202;2023-06-22T09:31:17;11.60;99.90
25668;DHT22;18003;-33.830;151.202;2023-06-22T09:33:48;11.60;99.90
25668;DHT22;18003;-33.830;151.202;2023-06-22T09:36:18;11.50;99.90
25668;DHT22;18003;-33.830;151.202;2023-06-22T09:38:48;11.60;99.90
25668;DHT22;18003;-33.830;151.202;2023-06-22T09:41:20;11.50;99.90
25668;DHT22;18003;-33.830;151.202;2023-06-22T09:43:50;11.60;99.90
25668;DHT22;18003;-33.830;151.202;2023-06-22T09:46:20;11.50;99.90
25668;DHT22;18003;-33.830;151.202;2023-06-22T09:48:51;11.50;99.90
25668;DHT22;18003;-33.830;151.202;2023-06-22T09:51:21;11.50;99.90
25668;DHT22;18003;-33.830;151.202;2023-06-22T09:53:52;11.60;99.90
25668;DHT22;18003;-33.830;151.202;2023-06-22T09:56:25;11.60;99.90
25668;DHT22;18003;-33.830;151.202;2023-06-22T09:58:56;11.60;99.90
25668;DHT22;18003;-33.830;151.202;2023-06-22T10:01:26;11.60;99.90
25668;DHT22;18003;-33.830;151.202;2023-06-22T10:03:56;11.60;99.90
25668;DHT22;18003;-33.830;151.202;2023-06-22T10:06:26;11.70;99.90
25668;DHT22;18003;-33.830;151.202;2023-06-22T10:08:56;11.70;99.90
25668;DHT22;18003;-33.830;151.202;2023-06-22T10:11:26;11.70;99.90
25668;DHT22;18003;-33.830;151.202;2023-06-22T10:13:57;11.70;99.90
25668;DHT22;18003;-33.830;151.202;2023-06-22T10:16:31;11.70;99.90
25668;DHT22;18003;-33.830;151.202;2023-06-22T10:19:01;11.80;99.90
25668;DHT22;18003;-33.830;151.202;2023-06-22T10:21:31;12.00;99.90
25668;DHT22;18003;-33.830;151.202;2023-06-22T10:24:01;12.20;99.90
25668;DHT22;18003;-33.830;151.202;2023-06-22T10:26:33;12.30;99.90
25668;DHT22;18003;-33.830;151.202;2023-06-22T10:29:06;12.40;99.90
25668;DHT22;18003;-33.830;151.202;2023-06-22T10:31:35;12.50;99.90
25668;DHT22;18003;-33.830;151.202;2023-06-22T10:34:05;12.60;99.90
25668;DHT22;18003;-33.830;151.202;2023-06-22T10:36:35;12.60;99.90
25668;DHT22;18003;-33.830;151.202;2023-06-22T10:39:05;12.60;99.90
25668;DHT22;18003;-33.830;151.202;2023-06-22T10:41:35;12.70;99.90
25668;DHT22;18003;-33.830;151.202;2023-06-22T10:44:05;12.70;99.90
25668;DHT22;18003;-33.830;151.202;2023-06-22T10:46:35;12.70;99.90
25668;DHT22;18003;-33.830;151.202;2023-06-22T10:49:04;12.70;99.90
25668;DHT22;18003;-33.830;151.202;2023-06-22T10:51:34;12.70;99.90
25668;DHT22;18003;-33.830;151.202;2023-06-22T10:54:04;12.80;99.90
25668;DHT22;18003;-33.830;151.202;2023-06-22T10:56:34;12.80;99.90
25668;DHT22;18003;-33.830;151.202;2023-06-22T10:59:04;12.80;99.90
25668;DHT22;18003;-33.830;151.202;2023-06-22T11:01:33;12.80;99.90
25668;DHT22;18003;-33.830;151.202;2023-06-22T11:04:04;12.80;99.90
25668;DHT22;18003;-33.830;151.202;2023-06-22T11:06:34;12.80;99.90
25668;DHT22;18003;-33.830;151.202;2023-06-22T11:09:04;12.80;99.90
25668;DHT22;18003;-33.830;151.202;2023-06-22T11:11:34;12.80;99.90
25668;DHT22;18003;-33.830;151.202;2023-06-22T11:14:04;12.80;99.90
25668;DHT22;18003;-33.830;151.202;2023-06-22T11:16:34;12.90;99.90
25668;DHT22;18003;-33.830;151.202;2023-06-22T11:19:05;12.90;99.90
25668;DHT22;18003;-33.830;151.202;2023-06-22T11:21:35;12.90;99.90
25668;DHT22;18003;-33.830;151.202;2023-06-22T11:24:05;12.90;99.90
25668;DHT22;18003;-33.830;151.202;2023-06-22T11:26:35;12.90;99.90
25668;DHT22;18003;-33.830;151.202;2023-06-22T11:29:05;12.90;99.90
25668;DHT22;18003;-33.830;151.202;2023-06-22T11:31:35;12.90;99.90
25668;DHT22;18003;-33.830;151.202;2023-06-22T11:34:06;12.90;99.90
25668;DHT22;18003;-33.830;151.202;2023-06-22T11:36:36;12.90;99.90
25668;DHT22;18003;-33.830;151.202;2023-06-22T11:39:06;12.90;99.90
25668;DHT22;18003;-33.830;151.202;2023-06-22T11:41:37;12.90;99.90
25668;DHT22;18003;-33.830;151.202;2023-06-22T11:44:07;12.90;99.90
25668;DHT22;18003;-33.830;151.202;2023-06-22T11:46:38;12.90;99.90
25668;DHT22;18003;-33.830;151.202;2023-06-22T11:49:14;12.90;99.90
25668;DHT22;18003;-33.830;151.202;2023-06-22T11:51:44;12.90;99.90
25668;DHT22;18003;-33.830;151.202;2023-06-22T11:54:14;12.90;99.90
25668;DHT22;18003;-33.830;151.202;2023-06-22T11:56:44;12.90;99.90
25668;DHT22;18003;-33.830;151.202;2023-06-22T11:59:16;12.90;99.90
25668;DHT22;18003;-33.830;151.202;2023-06-22T12:01:46;12.90;99.90
25668;DHT22;18003;-33.830;151.202;2023-06-22T12:04:16;12.90;99.90
25668;DHT22;18003;-33.830;151.202;2023-06-22T12:06:46;12.80;99.90
25668;DHT22;18003;-33.830;151.202;2023-06-22T12:09:16;12.50;99.90
25668;DHT22;18003;-33.830;151.202;2023-06-22T12:11:46;12.40;99.90
25668;DHT22;18003;-33.830;151.202;2023-06-22T12:14:16;12.20;99.90
25668;DHT22;18003;-33.830;151.202;2023-06-22T12:16:47;12.20;99.90
25668;DHT22;18003;-33.830;151.202;2023-06-22T12:19:17;12.10;99.90
25668;DHT22;18003;-33.830;151.202;2023-06-22T12:21:47;12.10;99.90
25668;DHT22;18003;-33.830;151.202;2023-06-22T12:24:17;12.10;99.90
25668;DHT22;18003;-33.830;151.202;2023-06-22T12:26:47;12.00;99.90
25668;DHT22;18003;-33.830;151.202;2023-06-22T12:29:17;11.90;99.90
25668;DHT22;18003;-33.830;151.202;2023-06-22T12:31:47;11.90;99.90
25668;DHT22;18003;-33.830;151.202;2023-06-22T12:34:17;11.80;99.90
25668;DHT22;18003;-33.830;151.202;2023-06-22T12:36:47;11.80;99.90
25668;DHT22;18003;-33.830;151.202;2023-06-22T12:39:17;11.70;99.90
25668;DHT22;18003;-33.830;151.202;2023-06-22T12:41:47;11.70;99.90
25668;DHT22;18003;-33.830;151.202;2023-06-22T12:44:17;11.60;99.90
25668;DHT22;18003;-33.830;151.202;2023-06-22T12:46:47;11.60;99.90
25668;DHT22;18003;-33.830;151.202;2023-06-22T12:49:18;11.70;99.90
25668;DHT22;18003;-33.830;151.202;2023-06-22T12:51:47;11.80;99.90
25668;DHT22;18003;-33.830;151.202;2023-06-22T12:54:18;12.00;99.90
25668;DHT22;18003;-33.830;151.202;2023-06-22T12:56:49;12.10;99.90
25668;DHT22;18003;-33.830;151.202;2023-06-22T12:59:19;12.20;99.90
25668;DHT22;18003;-33.830;151.202;2023-06-22T13:01:49;12.30;99.90
25668;DHT22;18003;-33.830;151.202;2023-06-22T13:04:20;12.30;99.90
25668;DHT22;18003;-33.830;151.202;2023-06-22T13:06:50;12.40;99.90
25668;DHT22;18003;-33.830;151.202;2023-06-22T13:09:21;12.40;99.90
25668;DHT22;18003;-33.830;151.202;2023-06-22T13:11:51;12.50;99.90
25668;DHT22;18003;-33.830;151.202;2023-06-22T13:14:21;12.50;99.90
25668;DHT22;18003;-33.830;151.202;2023-06-22T13:19:42;12.50;99.90
25668;DHT22;18003;-33.830;151.202;2023-06-22T13:22:36;12.50;99.90
25668;DHT22;18003;-33.830;151.202;2023-06-22T13:25:03;12.60;99.90
25668;DHT22;18003;-33.830;151.202;2023-06-22T13:27:33;12.60;99.90
25668;DHT22;18003;-33.830;151.202;2023-06-22T13:30:04;12.60;99.90
25668;DHT22;18003;-33.830;151.202;2023-06-22T13:32:34;12.60;99.90
25668;DHT22;18003;-33.830;151.202;2023-06-22T13:35:04;12.60;99.90
25668;DHT22;18003;-33.830;151.202;2023-06-22T13:37:34;12.60;99.90
25668;DHT22;18003;-33.830;151.202;2023-06-22T13:40:10;12.60;99.90
25668;DHT22;18003;-33.830;151.202;2023-06-22T13:42:36;12.60;99.90
25668;DHT22;18003;-33.830;151.202;2023-06-22T13:45:07;12.70;99.90
25668;DHT22;18003;-33.830;151.202;2023-06-22T13:47:38;12.70;99.90
25668;DHT22;18003;-33.830;151.202;2023-06-22T13:50:08;12.70;99.90
25668;DHT22;18003;-33.830;151.202;2023-06-22T13:52:38;12.70;99.90
25668;DHT22;18003;-33.830;151.202;2023-06-22T13:55:09;12.70;99.90
25668;DHT22;18003;-33.830;151.202;2023-06-22T13:57:39;12.70;99.90
25668;DHT22;18003;-33.830;151.202;2023-06-22T14:00:09;12.70;99.90
25668;DHT22;18003;-33.830;151.202;2023-06-22T14:02:41;12.70;99.90
25668;DHT22;18003;-33.830;151.202;2023-06-22T14:05:10;12.70;99.90
25668;DHT22;18003;-33.830;151.202;2023-06-22T14:07:40;12.70;99.90
25668;DHT22;18003;-33.830;151.202;2023-06-22T14:10:11;12.70;99.90
25668;DHT22;18003;-33.830;151.202;2023-06-22T14:12:41;12.70;99.90
25668;DHT22;18003;-33.830;151.202;2023-06-22T14:15:11;12.70;99.90
25668;DHT22;18003;-33.830;151.202;2023-06-22T14:17:41;12.70;99.90
25668;DHT22;18003;-33.830;151.202;2023-06-22T14:20:11;12.70;99.90
25668;DHT22;18003;-33.830;151.202;2023-06-22T14:22:42;12.70;99.90
25668;DHT22;18003;-33.830;151.202;2023-06-22T14:25:12;12.70;99.90
25668;DHT22;18003;-33.830;151.202;2023-06-22T14:27:42;12.70;99.90
25668;DHT22;18003;-33.830;151.202;2023-06-22T14:30:12;12.70;99.90
25668;DHT22;18003;-33.830;151.202;2023-06-22T14:32:43;12.70;99.90
25668;DHT22;18003;-33.830;151.202;2023-06-22T14:35:13;12.70;99.90
25668;DHT22;18003;-33.830;151.202;2023-06-22T14:37:43;12.70;99.90
25668;DHT22;18003;-33.830;151.202;2023-06-22T14:40:13;12.80;99.90
25668;DHT22;18003;-33.830;151.202;2023-06-22T14:42:44;12.70;99.90
25668;DHT22;18003;-33.830;151.202;2023-06-22T14:45:14;12.70;99.90
25668;DHT22;18003;-33.830;151.202;2023-06-22T14:47:44;12.70;99.90
25668;DHT22;18003;-33.830;151.202;2023-06-22T14:50:14;12.70;99.90
25668;DHT22;18003;-33.830;151.202;2023-06-22T14:52:44;12.70;99.90
25668;DHT22;18003;-33.830;151.202;2023-06-22T14:55:14;12.70;99.90
25668;DHT22;18003;-33.830;151.202;2023-06-22T14:57:44;12.70;99.90
25668;DHT22;18003;-33.830;151.202;2023-06-22T15:00:15;12.70;99.90
25668;DHT22;18003;-33.830;151.202;2023-06-22T15:02:45;12.70;99.90
25668;DHT22;18003;-33.830;151.202;2023-06-22T15:05:15;12.70;99.90
25668;DHT22;18003;-33.830;151.202;2023-06-22T15:07:45;12.80;99.90
25668;DHT22;18003;-33.830;151.202;2023-06-22T15:10:15;12.80;99.90
25668;DHT22;18003;-33.830;151.202;2023-06-22T15:12:45;12.80;99.90
25668;DHT22;18003;-33.830;151.202;2023-06-22T15:15:16;12.80;99.90
25668;DHT22;18003;-33.830;151.202;2023-06-22T15:17:46;12.70;99.90